Time;durP1;ratioP1;P1;durP2;ratioP2;P2;SDS_P1;SDS_P2;PMS_P1;PMS_P2;Temp;Humidity;BMP_temperature;BMP_pressure;BME280_temperature;BME280_humidity;BME280_pressure;Samples;Min_cycle;Max_cycle;Signal;HPM_P1;HPM_P2
2022/08/22 00:02:18;;;;;;;8.77;2.92;;;17.00;99.90;;;;;;5063937;28;20051;-74
2022/08/22 00:05:20;;;;;;;7.13;2.70;;;17.00;99.90;;;;;;5060495;28;20122;-75
2022/08/22 00:07:52;;;;;;;8.75;3.25;;;17.00;99.90;;;;;;5057581;28;20060;-74
2022/08/22 00:10:46;;;;;;;5.97;2.30;;;17.00;99.90;;;;;;5064258;28;20044;-75
2022/08/22 00:13:17;;;;;;;9.10;2.83;;;16.90;99.90;;;;;;5061548;28;20139;-73
2022/08/22 00:15:51;;;;;;;5.30;2.38;;;16.80;99.90;;;;;;5061092;28;20487;-72
2022/08/22 00:18:34;;;;;;;6.60;2.72;;;16.80;99.90;;;;;;5063729;28;20044;-72
2022/08/22 00:21:30;;;;;;;5.80;2.55;;;16.70;99.90;;;;;;5064525;28;20045;-72
2022/08/22 00:24:16;;;;;;;5.78;2.42;;;16.80;99.90;;;;;;5061218;28;20055;-73
2022/08/22 00:26:58;;;;;;;6.93;2.60;;;16.80;99.90;;;;;;5063690;28;20094;-76
2022/08/22 00:29:38;;;;;;;5.60;2.90;;;16.90;99.90;;;;;;5053312;28;20121;-76
2022/08/22 00:32:24;;;;;;;5.18;2.70;;;16.90;99.90;;;;;;5061910;28;20040;-73
2022/08/22 00:35:00;;;;;;;6.72;2.67;;;16.90;99.90;;;;;;5065020;28;20090;-73
2022/08/22 00:37:39;;;;;;;7.55;2.85;;;16.80;99.90;;;;;;5052002;28;20123;-72
2022/08/22 00:40:25;;;;;;;7.35;2.60;;;16.80;99.90;;;;;;5062691;28;20037;-73
2022/08/22 00:43:09;;;;;;;10.05;2.47;;;17.70;99.90;;;;;;5064650;28;20661;-75
2022/08/22 00:45:56;;;;;;;7.15;2.60;;;17.50;99.90;;;;;;5052743;28;20128;-76
2022/08/22 00:48:40;;;;;;;8.48;2.63;;;16.70;99.90;;;;;;5053311;28;20119;-73
2022/08/22 00:51:21;;;;;;;6.32;2.40;;;16.70;99.90;;;;;;5061941;28;20037;-72
2022/08/22 00:54:05;;;;;;;5.13;2.70;;;16.70;99.90;;;;;;5064523;28;20056;-73
2022/08/22 00:56:57;;;;;;;6.13;2.53;;;16.80;99.90;;;;;;5054000;28;20103;-72
2022/08/22 00:59:51;;;;;;;6.78;2.80;;;16.70;99.90;;;;;;5052516;28;20033;-73
2022/08/22 01:02:28;;;;;;;4.93;2.50;;;17.50;99.90;;;;;;5045495;28;20045;-75
2022/08/22 01:05:24;;;;;;;7.75;2.78;;;16.60;99.90;;;;;;5063128;28;20141;-72
2022/08/22 01:08:01;;;;;;;5.15;2.63;;;16.50;99.90;;;;;;5056608;28;20098;-73
2022/08/22 01:11:07;;;;;;;4.75;2.40;;;16.60;99.90;;;;;;5053041;28;20033;-72
2022/08/22 01:13:51;;;;;;;9.15;3.05;;;16.60;99.90;;;;;;5053358;28;20052;-72
2022/08/22 01:16:26;;;;;;;;;;;16.50;99.90;;;;;;5063596;28;20094;-72
2022/08/22 01:18:59;;;;;;;6.10;2.53;;;16.40;99.90;;;;;;5063294;28;20642;-72
2022/08/22 01:21:45;;;;;;;6.63;2.47;;;17.20;99.90;;;;;;5052663;28;20049;-72
2022/08/22 01:24:13;;;;;;;6.13;2.50;;;16.50;99.90;;;;;;5050127;28;20107;-73
2022/08/22 01:26:57;;;;;;;5.97;2.33;;;16.50;99.90;;;;;;5063320;28;20135;-73
2022/08/22 01:30:01;;;;;;;6.80;2.63;;;16.60;99.90;;;;;;5058872;28;20079;-72
2022/08/22 01:32:30;;;;;;;8.70;3.00;;;16.50;99.90;;;;;;5051292;28;20103;-73
2022/08/22 01:35:08;;;;;;;5.32;2.45;;;16.50;99.90;;;;;;5042184;28;20106;-72
2022/08/22 01:37:51;;;;;;;6.43;2.83;;;16.40;99.90;;;;;;5052004;28;20051;-72
2022/08/22 01:40:35;;;;;;;6.85;2.30;;;16.40;99.90;;;;;;5061771;28;20401;-72
2022/08/22 01:43:09;;;;;;;7.53;3.33;;;16.40;99.90;;;;;;5062231;28;20492;-75
2022/08/22 01:45:53;;;;;;;3.45;2.60;;;16.40;99.90;;;;;;5059851;28;20037;-73
2022/08/22 01:48:33;;;;;;;3.35;2.10;;;16.40;99.90;;;;;;5061969;28;20044;-74
2022/08/22 01:51:12;;;;;;;7.20;2.55;;;16.40;99.90;;;;;;5061940;28;20430;-76
2022/08/22 01:53:56;;;;;;;5.22;2.90;;;16.40;99.90;;;;;;5053095;28;20496;-76
2022/08/22 01:56:24;;;;;;;8.25;2.58;;;16.40;99.90;;;;;;5044975;28;20044;-76
2022/08/22 01:59:37;;;;;;;7.30;2.90;;;16.30;99.90;;;;;;5061835;28;20094;-76
2022/08/22 02:02:21;;;;;;;4.82;2.22;;;16.30;99.90;;;;;;5025056;28;20404;-74
2022/08/22 02:05:03;;;;;;;10.20;2.50;;;16.30;99.90;;;;;;5054131;28;20088;-73
2022/08/22 02:08:03;;;;;;;8.75;3.03;;;16.40;99.90;;;;;;5051821;28;20124;-75
2022/08/22 02:11:04;;;;;;;5.75;2.70;;;16.30;99.90;;;;;;5051720;28;20527;-76
2022/08/22 02:14:02;;;;;;;5.47;2.65;;;16.30;99.90;;;;;;5051971;28;20033;-73
2022/08/22 02:16:41;;;;;;;6.55;2.95;;;17.10;99.90;;;;;;5049190;28;20056;-73
2022/08/22 02:19:15;;;;;;;5.05;3.42;;;16.30;99.90;;;;;;5060321;28;20087;-76
2022/08/22 02:21:52;;;;;;;8.63;3.03;;;16.20;99.90;;;;;;5063060;28;20040;-75
2022/08/22 02:24:41;;;;;;;7.38;2.92;;;17.10;99.90;;;;;;5060210;28;20082;-75
2022/08/22 02:27:22;;;;;;;8.27;3.63;;;16.70;99.90;;;;;;5058983;28;20089;-72
2022/08/22 02:29:48;;;;;;;6.32;3.15;;;15.80;99.90;;;;;;5061024;28;20049;-74
2022/08/22 02:32:24;;;;;;;9.25;4.13;;;16.10;99.90;;;;;;5061478;28;20044;-76
2022/08/22 02:35:06;;;;;;;9.43;3.42;;;16.10;99.90;;;;;;5057882;28;20481;-72
2022/08/22 02:37:37;;;;;;;6.05;3.00;;;16.00;99.90;;;;;;5050883;28;20447;-73
2022/08/22 02:40:05;;;;;;;7.55;3.03;;;16.90;99.90;;;;;;5058442;28;20067;-73
2022/08/22 02:43:13;;;;;;;9.05;3.38;;;16.00;99.90;;;;;;5051490;28;20083;-72
2022/08/22 02:45:49;;;;;;;6.68;3.15;;;15.90;99.90;;;;;;5050725;28;20056;-73
2022/08/22 02:48:18;;;;;;;5.03;3.30;;;15.80;99.90;;;;;;5060612;28;20517;-75
2022/08/22 02:51:00;;;;;;;10.18;3.00;;;15.80;99.90;;;;;;5061997;28;20433;-71
2022/08/22 02:53:34;;;;;;;4.70;2.72;;;15.90;99.90;;;;;;5025053;28;20091;-72
2022/08/22 02:56:15;;;;;;;5.63;2.85;;;15.90;99.90;;;;;;5058559;28;20210;-71
2022/08/22 02:58:57;;;;;;;5.72;2.88;;;15.80;99.90;;;;;;5051862;28;20036;-74
2022/08/22 03:01:32;;;;;;;4.93;2.58;;;15.70;99.90;;;;;;5061622;28;20048;-72
2022/08/22 03:04:22;;;;;;;6.28;2.90;;;15.70;99.90;;;;;;5061604;28;20051;-72
2022/08/22 03:07:27;;;;;;;4.10;2.38;;;15.70;99.90;;;;;;5053073;28;20099;-73
2022/08/22 03:10:21;;;;;;;2.58;2.38;;;15.70;99.90;;;;;;5052233;28;20045;-72
2022/08/22 03:13:10;;;;;;;5.00;2.75;;;15.60;99.90;;;;;;5052290;28;20044;-73
2022/08/22 03:15:51;;;;;;;5.13;2.45;;;16.10;99.90;;;;;;5051183;28;20037;-72
2022/08/22 03:18:20;;;;;;;4.53;2.58;;;15.60;99.90;;;;;;5060105;28;20044;-73
2022/08/22 03:21:04;;;;;;;5.30;2.20;;;15.60;99.90;;;;;;5062295;28;20446;-72
2022/08/22 03:23:37;;;;;;;;;;;15.70;99.90;;;;;;5057796;28;20052;-72
2022/08/22 03:26:14;;;;;;;5.85;2.30;;;15.40;99.90;;;;;;5058051;28;19936;-74
2022/08/22 03:28:53;;;;;;;3.92;2.50;;;16.10;99.90;;;;;;5051983;28;20048;-75
2022/08/22 03:31:24;;;;;;;6.80;2.47;;;15.40;99.90;;;;;;5060540;28;20041;-73
2022/08/22 03:34:21;;;;;;;6.50;2.45;;;15.40;99.90;;;;;;5061292;28;20041;-71
2022/08/22 03:36:57;;;;;;;8.52;2.28;;;15.30;99.90;;;;;;5052485;28;20352;-74
2022/08/22 03:39:51;;;;;;;6.15;2.55;;;15.70;99.90;;;;;;5059118;28;20343;-72
2022/08/22 03:42:29;;;;;;;6.30;2.53;;;15.30;99.90;;;;;;5042834;28;20140;-72
2022/08/22 03:45:32;;;;;;;3.97;2.70;;;15.30;99.90;;;;;;5040954;28;20049;-71
2022/08/22 03:48:23;;;;;;;6.07;2.60;;;15.30;99.90;;;;;;5048280;28;20060;-72
2022/08/22 03:51:16;;;;;;;3.45;2.15;;;15.30;99.90;;;;;;5053385;28;20041;-71
2022/08/22 03:53:45;;;;;;;7.47;2.40;;;15.20;99.90;;;;;;5053646;28;20124;-72
2022/08/22 03:56:33;;;;;;;4.75;2.08;;;15.20;99.90;;;;;;5062958;28;20051;-71
2022/08/22 03:59:14;;;;;;;7.20;2.80;;;15.20;99.90;;;;;;5064569;28;20048;-74
2022/08/22 04:01:55;;;;;;;3.17;2.13;;;15.20;99.90;;;;;;5054585;28;20041;-71
2022/08/22 04:04:42;;;;;;;4.13;2.53;;;15.20;99.90;;;;;;5064192;28;20468;-71
2022/08/22 04:07:19;;;;;;;6.78;2.70;;;15.20;99.90;;;;;;5064611;28;20048;-75
2022/08/22 04:09:54;;;;;;;4.35;2.55;;;15.10;99.90;;;;;;5055477;28;20073;-75
2022/08/22 04:12:19;;;;;;;;;;;15.10;99.90;;;;;;5063124;28;20052;-76
2022/08/22 04:15:06;;;;;;;6.32;2.60;;;15.20;99.90;;;;;;5064812;28;19928;-75
2022/08/22 04:17:44;;;;;;;4.55;2.22;;;15.00;99.90;;;;;;5062194;28;20412;-74
2022/08/22 04:20:37;;;;;;;5.65;2.50;;;15.10;99.90;;;;;;5061807;28;20124;-75
2022/08/22 04:23:39;;;;;;;5.45;2.97;;;15.10;99.90;;;;;;5064708;28;20052;-74
2022/08/22 04:26:35;;;;;;;5.63;2.35;;;15.10;99.90;;;;;;5057671;28;20083;-76
2022/08/22 04:29:13;;;;;;;6.10;2.30;;;15.20;99.90;;;;;;5056545;28;20569;-73
2022/08/22 04:31:45;;;;;;;5.22;2.50;;;15.20;99.90;;;;;;5052909;28;20037;-74
2022/08/22 04:34:29;;;;;;;5.93;2.55;;;15.10;99.90;;;;;;5060492;28;20135;-75
2022/08/22 04:37:03;;;;;;;5.15;3.10;;;15.10;99.90;;;;;;5064437;28;20044;-75
2022/08/22 04:40:01;;;;;;;6.00;2.95;;;15.80;99.90;;;;;;5057078;28;20043;-75
2022/08/22 04:42:50;;;;;;;5.03;2.80;;;15.00;99.90;;;;;;5053870;28;20056;-75
2022/08/22 04:45:22;;;;;;;3.97;2.47;;;15.70;99.90;;;;;;5061700;28;20088;-75
2022/08/22 04:48:04;;;;;;;4.10;2.60;;;15.00;99.90;;;;;;5065277;28;20110;-75
2022/08/22 04:50:44;;;;;;;5.55;2.92;;;14.90;99.90;;;;;;5060547;28;20047;-74
2022/08/22 04:53:49;;;;;;;4.60;2.78;;;14.90;99.90;;;;;;5061986;28;20041;-75
2022/08/22 04:56:29;;;;;;;6.78;2.92;;;14.90;99.90;;;;;;5048693;28;20049;-75
2022/08/22 04:59:03;;;;;;;8.85;3.20;;;14.80;99.90;;;;;;5063432;28;20340;-72
2022/08/22 05:01:46;;;;;;;4.72;2.97;;;14.80;99.90;;;;;;5061188;28;20510;-74
2022/08/22 05:04:31;;;;;;;4.57;2.80;;;14.80;99.90;;;;;;5059898;28;20041;-72
2022/08/22 05:07:06;;;;;;;5.78;3.22;;;14.80;99.90;;;;;;5054304;28;20037;-74
2022/08/22 05:09:35;;;;;;;9.40;2.92;;;14.80;99.90;;;;;;5062323;28;20048;-72
2022/08/22 05:12:08;;;;;;;10.13;2.85;;;15.50;99.90;;;;;;5063893;28;20120;-74
2022/08/22 05:14:51;;;;;;;5.90;2.97;;;14.80;99.90;;;;;;5061423;28;20041;-75
2022/08/22 05:17:23;;;;;;;8.68;3.47;;;14.50;99.90;;;;;;5059995;28;20443;-75
2022/08/22 05:19:54;;;;;;;7.05;3.30;;;15.00;99.90;;;;;;5062270;28;20044;-73
2022/08/22 05:22:29;;;;;;;11.57;4.18;;;15.00;99.90;;;;;;5062229;28;20396;-75
2022/08/22 05:25:04;;;;;;;6.07;4.10;;;14.70;99.90;;;;;;5059823;28;20068;-73
2022/08/22 05:27:34;;;;;;;10.20;3.58;;;14.70;99.90;;;;;;5062576;28;20097;-73
2022/08/22 05:30:07;;;;;;;7.63;3.30;;;15.30;99.90;;;;;;5063019;28;20041;-73
2022/08/22 05:32:59;;;;;;;5.57;3.25;;;14.70;99.90;;;;;;5061016;28;20048;-72
2022/08/22 05:35:44;;;;;;;6.75;3.17;;;15.90;99.90;;;;;;5021784;28;20044;-72
2022/08/22 05:38:14;;;;;;;5.40;3.05;;;14.80;99.90;;;;;;5060574;28;20536;-73
2022/08/22 05:40:42;;;;;;;6.82;3.42;;;15.00;99.90;;;;;;5061964;28;20040;-72
2022/08/22 05:43:11;;;;;;;6.65;3.33;;;15.30;99.90;;;;;;5063794;28;20503;-73
2022/08/22 05:45:43;;;;;;;4.50;2.70;;;14.90;99.90;;;;;;5060518;28;20056;-71
2022/08/22 05:48:23;;;;;;;6.53;3.35;;;14.90;99.90;;;;;;5060542;28;20045;-71
2022/08/22 05:50:54;;;;;;;6.47;3.10;;;14.90;99.90;;;;;;5053005;28;20036;-74
2022/08/22 05:53:36;;;;;;;6.85;2.92;;;15.00;99.90;;;;;;5059916;28;20045;-72
2022/08/22 05:56:06;;;;;;;3.88;2.92;;;15.00;99.90;;;;;;5062260;28;20036;-72
2022/08/22 05:58:38;;;;;;;5.60;3.38;;;15.00;99.90;;;;;;5061625;28;20095;-73
2022/08/22 06:01:12;;;;;;;5.20;2.90;;;15.00;99.90;;;;;;5059158;28;20057;-73
2022/08/22 06:03:45;;;;;;;3.83;2.90;;;15.10;99.90;;;;;;5062650;28;20048;-76
2022/08/22 06:06:17;;;;;;;10.52;3.38;;;15.20;99.90;;;;;;5063406;28;20044;-74
2022/08/22 06:09:12;;;;;;;5.10;3.40;;;15.40;99.90;;;;;;5059705;28;20498;-77
2022/08/22 06:11:44;;;;;;;12.05;3.35;;;15.30;99.90;;;;;;5050219;28;20048;-73
2022/08/22 06:14:29;;;;;;;9.05;3.90;;;15.40;99.90;;;;;;5058903;28;20050;-72
2022/08/22 06:17:09;;;;;;;7.70;3.83;;;15.50;99.90;;;;;;5053051;28;20048;-72
2022/08/22 06:19:47;;;;;;;12.13;7.88;;;16.20;99.90;;;;;;5061603;28;20067;-73
2022/08/22 06:22:33;;;;;;;13.88;7.95;;;16.20;99.90;;;;;;5061256;28;20037;-73
2022/08/22 06:25:17;;;;;;;13.10;7.40;;;15.60;99.90;;;;;;5053200;28;20111;-72
2022/08/22 06:27:46;;;;;;;8.67;4.43;;;15.70;99.90;;;;;;5061474;28;20557;-76
2022/08/22 06:30:15;;;;;;;8.95;3.40;;;15.90;99.90;;;;;;5062273;28;20301;-74
2022/08/22 06:32:47;;;;;;;11.55;4.28;;;15.90;99.90;;;;;;5060631;28;20040;-76
2022/08/22 06:35:26;;;;;;;11.48;3.92;;;15.90;99.90;;;;;;5058874;28;20036;-76
2022/08/22 06:37:58;;;;;;;8.02;3.70;;;16.00;99.90;;;;;;5052203;28;20041;-76
2022/08/22 06:40:26;;;;;;;10.88;3.90;;;16.50;99.90;;;;;;5059489;28;20090;-75
2022/08/22 06:42:53;;;;;;;7.80;3.40;;;16.10;99.90;;;;;;5061010;28;20045;-73
2022/08/22 06:45:29;;;;;;;6.55;3.28;;;16.10;99.90;;;;;;5061361;28;20093;-74
2022/08/22 06:48:19;;;;;;;12.45;3.50;;;16.20;99.90;;;;;;5050889;28;20075;-73
2022/08/22 06:50:49;;;;;;;18.58;10.07;;;16.20;99.90;;;;;;5060206;28;20036;-73
2022/08/22 06:53:46;;;;;;;16.92;11.90;;;16.30;99.90;;;;;;5061535;28;20037;-73
2022/08/22 06:56:24;;;;;;;19.58;11.45;;;16.30;99.90;;;;;;5044200;28;20586;-73
2022/08/22 06:58:54;;;;;;;11.30;6.22;;;16.40;99.90;;;;;;5051181;28;20040;-73
2022/08/22 07:01:24;;;;;;;16.20;6.13;;;16.50;99.90;;;;;;5059304;28;20493;-74
2022/08/22 07:03:53;;;;;;;9.85;4.55;;;16.50;99.90;;;;;;5048706;28;20485;-72
2022/08/22 07:06:31;;;;;;;8.80;4.20;;;16.50;99.90;;;;;;5059287;28;20036;-72
2022/08/22 07:08:57;;;;;;;15.80;4.20;;;16.60;99.90;;;;;;5051872;28;20048;-72
2022/08/22 07:11:33;;;;;;;9.15;3.72;;;16.60;99.90;;;;;;5057452;28;20106;-74
2022/08/22 07:14:06;;;;;;;13.30;4.93;;;17.00;99.90;;;;;;5051861;28;20029;-71
2022/08/22 07:16:39;;;;;;;11.35;4.65;;;16.70;99.90;;;;;;5059858;28;20049;-73
2022/08/22 07:19:06;;;;;;;7.18;3.80;;;16.80;99.90;;;;;;5060786;28;20075;-73
2022/08/22 07:21:46;;;;;;;13.25;4.47;;;16.90;99.90;;;;;;5061984;28;20102;-74
2022/08/22 07:24:19;;;;;;;11.48;4.05;;;16.90;99.90;;;;;;5057999;28;20045;-73
2022/08/22 07:27:18;;;;;;;10.77;3.95;;;17.60;99.90;;;;;;5064122;28;20067;-72
2022/08/22 07:30:06;;;;;;;9.90;4.20;;;17.00;99.90;;;;;;5060250;28;20040;-74
2022/08/22 07:32:41;;;;;;;14.25;3.53;;;17.00;99.90;;;;;;5063528;28;20052;-72
2022/08/22 07:35:14;;;;;;;13.07;4.18;;;17.10;99.90;;;;;;5064765;28;20448;-72
2022/08/22 07:37:55;;;;;;;4.75;3.30;;;17.10;99.90;;;;;;5063780;28;20408;-72
2022/08/22 07:40:47;;;;;;;8.05;3.17;;;17.10;99.90;;;;;;5062899;28;20033;-74
2022/08/22 07:43:30;;;;;;;10.98;3.17;;;17.20;99.90;;;;;;5045331;28;20059;-73
2022/08/22 07:46:18;;;;;;;9.77;3.25;;;17.30;99.90;;;;;;5061430;28;20408;-72
2022/08/22 07:48:48;;;;;;;8.95;2.55;;;17.30;99.90;;;;;;5064712;28;20458;-72
2022/08/22 07:51:28;;;;;;;9.77;2.45;;;17.40;99.90;;;;;;5065263;28;20533;-72
2022/08/22 07:53:57;;;;;;;27.30;15.07;;;17.40;99.90;;;;;;5053886;28;20044;-73
2022/08/22 07:56:26;;;;;;;12.10;3.65;;;17.40;99.90;;;;;;5062336;28;20037;-73
2022/08/22 07:58:57;;;;;;;10.98;3.10;;;17.50;99.90;;;;;;5064829;28;20048;-73
2022/08/22 08:01:25;;;;;;;12.90;2.67;;;17.80;99.90;;;;;;5066052;28;20040;-73
2022/08/22 08:03:58;;;;;;;9.68;3.00;;;17.60;99.90;;;;;;5062758;28;20049;-72
2022/08/22 08:06:25;;;;;;;10.85;2.78;;;17.60;99.90;;;;;;5061666;28;20049;-74
2022/08/22 08:08:52;;;;;;;10.52;2.88;;;17.70;99.90;;;;;;5064998;28;20051;-73
2022/08/22 08:11:21;;;;;;;5.55;2.08;;;17.70;99.90;;;;;;5065577;28;20123;-76
2022/08/22 08:13:53;;;;;;;12.75;2.80;;;17.80;99.90;;;;;;5062432;28;20091;-76
2022/08/22 08:16:23;;;;;;;9.02;2.90;;;17.80;99.90;;;;;;5062164;28;20037;-76
2022/08/22 08:18:51;;;;;;;9.38;2.70;;;17.80;99.90;;;;;;5063665;28;20045;-73
2022/08/22 08:21:27;;;;;;;13.38;3.10;;;18.40;99.90;;;;;;5064176;28;20040;-73
2022/08/22 08:23:54;;;;;;;13.55;3.35;;;18.80;99.90;;;;;;5061937;28;20068;-73
2022/08/22 08:26:30;;;;;;;8.60;2.63;;;18.00;99.90;;;;;;5061328;28;20096;-73
2022/08/22 08:28:58;;;;;;;6.25;2.55;;;18.10;99.90;;;;;;5064957;28;20468;-72
2022/08/22 08:31:37;;;;;;;14.55;4.15;;;18.70;99.90;;;;;;5065248;28;20381;-72
2022/08/22 08:34:21;;;;;;;10.43;2.55;;;18.10;99.90;;;;;;5053152;28;20513;-72
2022/08/22 08:36:58;;;;;;;9.68;2.65;;;18.20;99.90;;;;;;5063018;28;20041;-72
2022/08/22 08:39:32;;;;;;;9.25;3.20;;;18.20;99.90;;;;;;5064972;28;20086;-72
2022/08/22 08:43:25;;;;;;;8.88;2.72;;;18.30;99.90;;;;;;5061124;28;20128;-71
2022/08/22 08:45:43;;;;;;;11.10;3.05;;;18.30;99.90;;;;;;5056077;28;20055;-72
2022/08/22 08:48:33;;;;;;;12.27;2.75;;;18.40;99.90;;;;;;5054008;28;20258;-71
2022/08/22 08:51:27;;;;;;;9.60;2.33;;;18.40;99.90;;;;;;5064644;28;20037;-74
2022/08/22 08:54:23;;;;;;;7.65;2.33;;;18.40;99.90;;;;;;5060514;28;20041;-76
2022/08/22 08:57:32;;;;;;;10.52;3.00;;;18.40;99.90;;;;;;5063107;28;20049;-73
2022/08/22 09:00:00;;;;;;;15.88;2.80;;;18.50;99.90;;;;;;5061811;28;20037;-75
2022/08/22 09:02:47;;;;;;;10.50;2.72;;;18.50;99.90;;;;;;5060943;28;20056;-74
2022/08/22 09:05:13;;;;;;;6.20;1.90;;;18.60;99.90;;;;;;5054273;28;20033;-74
2022/08/22 09:07:44;;;;;;;8.15;2.72;;;18.70;99.90;;;;;;5061442;28;20049;-75
2022/08/22 09:10:38;;;;;;;11.95;2.85;;;18.70;99.90;;;;;;5063957;28;20044;-76
2022/08/22 09:13:28;;;;;;;7.63;2.35;;;18.80;99.90;;;;;;5051957;28;20045;-74
2022/08/22 09:16:23;;;;;;;10.55;2.55;;;18.90;99.90;;;;;;5062807;28;20474;-74
2022/08/22 09:18:58;;;;;;;;;;;18.90;99.90;;;;;;5063566;28;20403;-73
2022/08/22 09:21:54;;;;;;;8.18;1.77;;;19.00;99.90;;;;;;5060992;28;19920;-72
2022/08/22 09:24:30;;;;;;;11.55;2.50;;;19.00;99.90;;;;;;5054611;28;20063;-75
2022/08/22 09:27:34;;;;;;;10.73;2.38;;;19.10;99.90;;;;;;5063099;28;20061;-72
2022/08/22 09:30:14;;;;;;;9.07;2.22;;;19.20;99.90;;;;;;5039130;28;20057;-72
2022/08/22 09:32:46;;;;;;;6.78;2.28;;;19.30;99.90;;;;;;5060760;28;20260;-73
2022/08/22 09:36:03;;;;;;;5.90;1.98;;;19.40;99.90;;;;;;5051838;28;20072;-73
2022/08/22 09:38:54;;;;;;;10.15;2.40;;;19.40;99.90;;;;;;5021262;28;20037;-73
2022/08/22 09:41:37;;;;;;;10.32;2.65;;;19.50;99.90;;;;;;5031703;28;20133;-77
2022/08/22 09:44:15;;;;;;;10.23;2.47;;;19.50;99.90;;;;;;5059037;28;20577;-74
2022/08/22 09:47:01;;;;;;;10.25;2.50;;;19.60;99.90;;;;;;5063582;28;20442;-74
2022/08/22 09:49:50;;;;;;;13.75;2.47;;;19.70;99.90;;;;;;5054320;28;20048;-75
2022/08/22 09:52:45;;;;;;;9.48;1.92;;;19.90;99.90;;;;;;5051268;28;20477;-74
2022/08/22 09:55:30;;;;;;;8.18;1.90;;;19.90;99.90;;;;;;5050984;28;20493;-75
2022/08/22 09:58:05;;;;;;;10.98;2.30;;;20.10;99.90;;;;;;5059926;28;20056;-74
2022/08/22 10:00:37;;;;;;;10.20;2.22;;;20.20;99.90;;;;;;5063410;28;20131;-72
2022/08/22 10:03:27;;;;;;;10.13;1.83;;;20.30;99.90;;;;;;5061106;28;20119;-73
2022/08/22 10:05:55;;;;;;;8.70;2.25;;;20.40;99.90;;;;;;5060457;28;20055;-76
2022/08/22 10:08:27;;;;;;;10.98;2.03;;;20.50;99.90;;;;;;5063421;28;20036;-75
2022/08/22 10:11:01;;;;;;;8.77;1.60;;;20.60;99.90;;;;;;5062207;28;20041;-72
2022/08/22 10:13:54;;;;;;;5.25;1.63;;;20.70;99.90;;;;;;5059151;28;20037;-75
2022/08/22 10:16:44;;;;;;;8.10;2.22;;;20.90;99.90;;;;;;5052921;28;20409;-75
2022/08/22 10:19:18;;;;;;;8.50;1.67;;;20.80;99.90;;;;;;5062200;28;20043;-71
2022/08/22 10:21:50;;;;;;;5.97;1.80;;;20.90;99.90;;;;;;5063062;28;20464;-72
2022/08/22 10:24:42;;;;;;;5.72;2.00;;;21.00;99.90;;;;;;5050352;28;20055;-74
2022/08/22 10:27:29;;;;;;;6.53;2.47;;;21.00;99.90;;;;;;5060683;28;20128;-71
2022/08/22 10:30:01;;;;;;;9.30;2.70;;;21.10;99.90;;;;;;5061770;28;20040;-72
2022/08/22 10:32:39;;;;;;;9.27;4.85;;;21.00;99.90;;;;;;5059084;28;20098;-73
2022/08/22 10:35:32;;;;;;;8.82;2.17;;;21.00;99.90;;;;;;5061601;28;20045;-72
2022/08/22 10:38:13;;;;;;;10.15;1.98;;;21.10;99.90;;;;;;5061680;28;20048;-72
2022/08/22 10:41:05;;;;;;;10.38;2.00;;;21.20;99.90;;;;;;5059015;28;20151;-71
2022/08/22 10:43:49;;;;;;;5.80;1.75;;;21.40;99.90;;;;;;5053078;28;20493;-72
2022/08/22 10:46:24;;;;;;;8.18;1.95;;;21.50;99.90;;;;;;5051024;28;20076;-73
2022/08/22 10:48:57;;;;;;;7.28;2.03;;;21.90;99.90;;;;;;5059360;28;20054;-72
2022/08/22 10:51:48;;;;;;;14.00;6.72;;;21.70;99.90;;;;;;5062970;28;20124;-72
2022/08/22 10:54:23;;;;;;;9.88;3.10;;;21.80;99.90;;;;;;5058720;28;20045;-73
2022/08/22 10:57:20;;;;;;;8.48;2.00;;;21.90;99.90;;;;;;5057978;28;20057;-72
2022/08/22 11:00:24;;;;;;;8.02;1.95;;;21.90;99.90;;;;;;5054784;28;20045;-72
2022/08/22 11:03:30;;;;;;;7.93;2.25;;;22.00;99.90;;;;;;5055599;28;20045;-72
2022/08/22 11:06:23;;;;;;;8.70;2.20;;;22.00;99.90;;;;;;5048646;28;20060;-72
2022/08/22 11:09:22;;;;;;;6.57;1.57;;;22.20;99.90;;;;;;5058847;28;20051;-72
2022/08/22 11:12:08;;;;;;;6.22;2.05;;;22.30;99.90;;;;;;5055232;28;20045;-76
2022/08/22 11:14:36;;;;;;;6.93;2.08;;;22.30;99.90;;;;;;5052160;28;20454;-74
2022/08/22 11:17:19;;;;;;;8.50;1.85;;;22.40;99.90;;;;;;5059199;28;20069;-75
2022/08/22 11:19:51;;;;;;;4.22;1.58;;;22.40;99.90;;;;;;5062634;28;20059;-75
2022/08/22 11:22:58;;;;;;;4.30;1.30;;;22.60;99.90;;;;;;5058583;28;20065;-74
2022/08/22 11:25:50;;;;;;;6.65;2.30;;;22.80;99.90;;;;;;5051516;28;20033;-72
2022/08/22 11:28:19;;;;;;;8.38;2.00;;;22.90;99.90;;;;;;5061923;28;20107;-75
2022/08/22 11:30:56;;;;;;;5.70;1.60;;;23.10;99.90;;;;;;5061684;28;20511;-75
2022/08/22 11:33:54;;;;;;;7.72;1.85;;;23.20;99.90;;;;;;5050651;28;20504;-75
2022/08/22 11:36:30;;;;;;;6.68;1.90;;;23.30;99.90;;;;;;5061582;28;20087;-75
2022/08/22 11:39:16;;;;;;;10.88;1.60;;;23.40;99.90;;;;;;5062183;28;20098;-75
2022/08/22 11:42:00;;;;;;;8.02;1.80;;;23.40;99.90;;;;;;5053727;28;20298;-74
2022/08/22 11:44:35;;;;;;;8.27;1.63;;;23.40;99.90;;;;;;5050575;28;20126;-75
2022/08/22 11:47:07;;;;;;;7.18;1.55;;;23.40;99.90;;;;;;5059266;28;20041;-73
2022/08/22 11:49:46;;;;;;;6.32;1.50;;;23.50;99.90;;;;;;5061752;28;20523;-76
2022/08/22 11:52:21;;;;;;;6.53;3.03;;;23.70;99.90;;;;;;5060329;28;20054;-76
2022/08/22 11:54:53;;;;;;;4.13;1.95;;;23.90;99.90;;;;;;5058641;28;20037;-75
2022/08/22 11:57:29;;;;;;;5.63;1.23;;;23.90;99.90;;;;;;5060947;28;20055;-76
2022/08/22 12:00:11;;;;;;;7.05;1.67;;;24.00;99.90;;;;;;5062144;28;20055;-75
2022/08/22 12:03:18;;;;;;;7.10;1.90;;;24.00;99.90;;;;;;5052183;28;20049;-76
2022/08/22 12:06:12;;;;;;;5.38;1.50;;;24.10;99.90;;;;;;5052291;28;20079;-74
2022/08/22 12:09:01;;;;;;;4.72;1.23;;;24.20;99.90;;;;;;5052126;28;20488;-73
2022/08/22 12:11:39;;;;;;;7.75;2.13;;;24.30;99.90;;;;;;5050273;28;20056;-74
2022/08/22 12:14:25;;;;;;;6.75;1.35;;;24.40;99.90;;;;;;5062657;28;20039;-72
2022/08/22 12:17:09;;;;;;;5.68;1.58;;;24.50;99.90;;;;;;5065467;28;20044;-73
2022/08/22 12:20:09;;;;;;;9.02;1.80;;;24.70;99.90;;;;;;5054607;28;20044;-72
2022/08/22 12:22:45;;;;;;;8.88;2.05;;;24.90;99.90;;;;;;5055114;28;20489;-75
2022/08/22 12:25:19;;;;;;;5.10;2.45;;;25.00;99.90;;;;;;5062125;28;20037;-77
2022/08/22 12:28:05;;;;;;;13.85;2.60;;;24.90;99.90;;;;;;5065502;28;20051;-73
2022/08/22 12:30:40;;;;;;;7.07;2.38;;;25.10;99.90;;;;;;5045840;28;20036;-73
2022/08/22 12:33:31;;;;;;;8.00;1.90;;;24.90;99.90;;;;;;5063837;28;20055;-73
2022/08/22 12:36:20;;;;;;;8.13;1.63;;;24.80;99.90;;;;;;5061828;28;20049;-73
2022/08/22 12:39:09;;;;;;;3.60;1.40;;;24.80;99.90;;;;;;5055863;28;20041;-73
2022/08/22 12:41:53;;;;;;;8.13;1.50;;;24.90;99.90;;;;;;5054235;28;20049;-73
2022/08/22 12:44:37;;;;;;;7.05;1.20;;;24.90;99.90;;;;;;5062596;28;20087;-73
2022/08/22 12:47:19;;;;;;;8.05;2.03;;;24.90;99.90;;;;;;5064434;28;20059;-72
2022/08/22 12:50:23;;;;;;;4.90;2.25;;;25.00;99.90;;;;;;5055252;28;20090;-72
2022/08/22 12:53:14;;;;;;;6.00;1.58;;;25.10;99.90;;;;;;5038690;28;20445;-76
2022/08/22 12:55:43;;;;;;;6.63;1.77;;;25.20;99.90;;;;;;5032146;28;20449;-72
2022/08/22 12:58:09;;;;;;;8.75;1.55;;;25.30;99.90;;;;;;5053781;28;20060;-73
2022/08/22 13:00:43;;;;;;;6.93;1.85;;;25.40;99.90;;;;;;5064061;28;20076;-75
2022/08/22 13:03:31;;;;;;;6.93;1.60;;;26.00;99.90;;;;;;5063952;28;20040;-73
2022/08/22 13:06:02;;;;;;;6.30;1.85;;;25.50;99.90;;;;;;5043325;28;20532;-75
2022/08/22 13:08:33;;;;;;;12.38;1.70;;;25.30;99.90;;;;;;5063418;28;20036;-74
2022/08/22 13:11:05;;;;;;;4.10;1.38;;;25.30;99.90;;;;;;5064546;28;20040;-74
2022/08/22 13:13:37;;;;;;;7.20;1.80;;;25.30;99.90;;;;;;5059905;28;20045;-73
2022/08/22 13:16:07;;;;;;;6.25;1.55;;;25.30;99.90;;;;;;5060051;28;20413;-72
2022/08/22 13:18:49;;;;;;;8.35;1.40;;;25.20;99.90;;;;;;5063099;28;20040;-73
2022/08/22 13:21:17;;;;;;;6.82;1.40;;;25.50;99.90;;;;;;5062810;28;20098;-73
2022/08/22 13:23:49;;;;;;;4.80;1.35;;;25.60;99.60;;;;;;5059608;28;20057;-73
2022/08/22 13:26:17;;;;;;;7.65;1.42;;;25.70;99.20;;;;;;5061482;28;20033;-73
2022/08/22 13:28:47;;;;;;;6.30;1.23;;;25.80;98.60;;;;;;5063584;28;20082;-73
2022/08/22 13:31:24;;;;;;;6.38;1.30;;;26.00;98.50;;;;;;5063592;28;20044;-73
2022/08/22 13:33:56;;;;;;;3.15;0.93;;;26.10;97.90;;;;;;5060507;28;20106;-72
2022/08/22 13:36:22;;;;;;;6.00;1.58;;;25.90;97.90;;;;;;5061490;28;20037;-72
2022/08/22 13:39:12;;;;;;;8.45;1.33;;;25.60;97.80;;;;;;5063828;28;20098;-74
2022/08/22 13:41:59;;;;;;;7.15;1.50;;;25.30;97.50;;;;;;5052785;28;20071;-73
2022/08/22 13:44:34;;;;;;;4.55;1.48;;;25.20;98.30;;;;;;5060031;28;20416;-73
2022/08/22 13:47:04;;;;;;;9.30;1.77;;;25.10;98.30;;;;;;5062622;28;20389;-73
2022/08/22 13:49:40;;;;;;;5.30;1.63;;;25.20;97.80;;;;;;5059242;28;20045;-73
2022/08/22 13:52:33;;;;;;;4.15;1.45;;;25.00;97.80;;;;;;5060389;28;20040;-76
2022/08/22 13:55:15;;;;;;;4.87;1.47;;;24.90;98.20;;;;;;5054946;28;20037;-76
2022/08/22 13:57:58;;;;;;;6.90;1.73;;;24.70;98.20;;;;;;5052147;28;20041;-75